Weather at Orangeville Airport [CLOSED]

Public forecast

Using degrees Celsius for public forecast. Weather courtesy of forecast.io.

Closest aviation weather report (METAR) to Orangeville Airport

Closest report is Toronto Lester B. Pearson International Airport, 21.4 nm (39.7 km) SE.

2024/05/20 00:00 (retrieved 46 minutes ago)

CYYZ 200000Z 18005KT 15SM FEW050TCU SCT070 BKN200 19/14 A2994 RMK TCU1AC2CI2 TCU SW-N SLP140 DENSITY ALT 1200FT

Closest aviation forecast (TAF) to Orangeville Airport

Closest forecast is Billy Bishop Toronto City Centre Airport, 31.5 nm (58.3 km) ESE.

2024/05/19 20:42 (retrieved 4 hours ago)

TAF CYTZ 191940Z 1920/2020 08007KT P6SM SKC FM192100 08010KT P6SM FEW010 BKN050 BECMG 2001/2003 36006KT FM200600 35007KT 6SM BR FEW006 FM201200 35006KT P6SM SKC BECMG 2012/2014 12006KT RMK FCST BASED ON AUTO OBS NXT FCST BY 200200Z